createdAt,value
2023-05-20T00:00:18.601Z,44.86
2023-05-20T00:01:17.591Z,53.46
2023-05-20T00:02:17.666Z,49.22
2023-05-20T00:03:17.654Z,44.95
2023-05-20T00:04:17.713Z,53.36
2023-05-20T00:05:17.610Z,52.90
2023-05-20T00:06:17.542Z,50.43
2023-05-20T00:07:17.528Z,49.44
2023-05-20T00:08:17.548Z,46.42
2023-05-20T00:09:17.499Z,54.26
2023-05-20T00:10:17.518Z,46.05
2023-05-20T00:11:17.484Z,49.25
2023-05-20T00:12:17.552Z,55.77
2023-05-20T00:13:17.500Z,55.27
2023-05-20T00:14:17.504Z,45.27
2023-05-20T00:15:17.461Z,51.67
2023-05-20T00:16:18.258Z,46.70
2023-05-20T00:17:17.464Z,45.92
2023-05-20T00:18:17.503Z,50.82
2023-05-20T00:19:17.959Z,48.22
2023-05-20T00:20:17.567Z,46.11
2023-05-20T00:21:17.473Z,61.08
2023-05-20T00:22:17.503Z,48.20
2023-05-20T00:23:17.404Z,43.79
2023-05-20T00:24:17.378Z,49.16
2023-05-20T00:25:17.433Z,49.96
2023-05-20T00:26:17.377Z,49.51
2023-05-20T00:27:17.367Z,48.51
2023-05-20T00:28:17.528Z,52.35
2023-05-20T00:29:17.364Z,54.32
2023-05-20T00:30:17.394Z,46.67
2023-05-20T00:31:17.347Z,53.86
2023-05-20T00:32:17.393Z,59.39
2023-05-20T00:33:17.331Z,58.73
2023-05-20T00:34:17.317Z,59.84
2023-05-20T00:35:17.292Z,49.68
2023-05-20T00:36:17.317Z,55.53
2023-05-20T00:37:17.270Z,55.77
2023-05-20T00:38:17.283Z,46.50
2023-05-20T00:39:17.286Z,54.04
2023-05-20T00:40:17.243Z,44.55
2023-05-20T00:41:17.251Z,49.26
2023-05-20T00:42:17.240Z,53.00
2023-05-20T00:43:17.238Z,52.92
2023-05-20T00:44:17.211Z,55.99
2023-05-20T00:45:17.230Z,54.75
2023-05-20T00:46:17.320Z,54.75
2023-05-20T00:47:17.163Z,49.76
2023-05-20T00:48:17.223Z,51.75
2023-05-20T00:49:17.226Z,46.98
2023-05-20T00:50:17.195Z,45.29
2023-05-20T00:51:17.157Z,51.38
2023-05-20T00:52:17.161Z,45.74
2023-05-20T00:53:17.138Z,52.97
2023-05-20T00:54:17.162Z,45.62
2023-05-20T00:55:17.134Z,48.04
2023-05-20T00:56:17.152Z,48.03
2023-05-20T00:57:17.128Z,51.43
2023-05-20T00:58:17.112Z,53.08
2023-05-20T00:59:17.099Z,56.43
2023-05-20T01:00:17.097Z,48.04
2023-05-20T01:01:17.096Z,49.40
2023-05-20T01:02:17.112Z,52.43
2023-05-20T01:03:17.133Z,46.55
2023-05-20T01:04:18.065Z,49.43
2023-05-20T01:05:18.116Z,49.71
2023-05-20T01:06:17.020Z,44.12
2023-05-20T01:07:17.055Z,49.28
2023-05-20T01:08:17.240Z,53.68
2023-05-20T01:09:17.011Z,53.71
2023-05-20T01:10:17.028Z,43.67
2023-05-20T01:11:17.031Z,43.86
2023-05-20T01:12:17.235Z,45.51
2023-05-20T01:13:17.038Z,54.97
2023-05-20T01:14:17.066Z,43.95
2023-05-20T01:15:16.977Z,46.84
2023-05-20T01:16:17.012Z,49.68
2023-05-20T01:17:16.954Z,45.39
2023-05-20T01:18:16.952Z,48.32
2023-05-20T01:19:16.982Z,44.84
2023-05-20T01:20:16.954Z,53.08
2023-05-20T01:21:16.933Z,44.06
2023-05-20T01:22:16.934Z,46.88
2023-05-20T01:23:16.942Z,53.99
2023-05-20T01:24:16.914Z,49.56
2023-05-20T01:25:16.913Z,49.32
2023-05-20T01:26:16.888Z,43.69
2023-05-20T01:27:16.886Z,51.57
2023-05-20T01:28:16.893Z,54.92
2023-05-20T01:29:16.859Z,48.52
2023-05-20T01:30:16.855Z,49.03
2023-05-20T01:31:16.902Z,44.38
2023-05-20T01:32:16.848Z,49.95
2023-05-20T01:33:17.857Z,46.44
2023-05-20T01:34:16.830Z,44.93
2023-05-20T01:35:16.849Z,49.48
2023-05-20T01:36:17.582Z,45.15
2023-05-20T01:37:16.784Z,45.23
2023-05-20T01:38:16.813Z,45.56
2023-05-20T01:39:16.820Z,48.19
2023-05-20T01:40:16.813Z,50.20
2023-05-20T01:41:16.782Z,44.74
2023-05-20T01:42:16.781Z,44.27
2023-05-20T01:43:17.691Z,49.82
2023-05-20T01:44:17.750Z,44.47
2023-05-20T01:45:16.753Z,45.95
2023-05-20T01:46:16.848Z,45.77
2023-05-20T01:47:16.727Z,55.01
2023-05-20T01:48:16.720Z,56.04
2023-05-20T01:49:16.726Z,47.25
2023-05-20T01:50:16.770Z,47.25
2023-05-20T01:51:16.718Z,54.35
2023-05-20T01:52:16.698Z,45.48
2023-05-20T01:53:16.694Z,54.49
2023-05-20T01:54:16.663Z,52.19
2023-05-20T01:55:16.688Z,45.05
2023-05-20T01:56:16.677Z,46.15
2023-05-20T01:57:16.643Z,49.82
2023-05-20T01:58:16.628Z,44.42
2023-05-20T01:59:16.632Z,45.46
2023-05-20T02:00:16.616Z,45.21
2023-05-20T02:01:16.737Z,44.39
2023-05-20T02:02:16.695Z,48.92
2023-05-20T02:03:16.608Z,51.40
2023-05-20T02:04:16.569Z,45.10
2023-05-20T02:05:16.617Z,44.31
2023-05-20T02:06:16.594Z,47.24
2023-05-20T02:07:16.574Z,53.37
2023-05-20T02:08:16.570Z,52.00
2023-05-20T02:09:16.526Z,47.11
2023-05-20T02:10:16.537Z,57.97
2023-05-20T02:11:16.549Z,47.73
2023-05-20T02:12:16.586Z,50.59
2023-05-20T02:13:16.506Z,49.41
2023-05-20T02:14:16.551Z,51.00
2023-05-20T02:15:16.556Z,54.32
2023-05-20T02:16:16.562Z,50.44
2023-05-20T02:17:16.558Z,51.68
2023-05-20T02:18:16.566Z,48.81
2023-05-20T02:19:16.512Z,53.78
2023-05-20T02:20:16.499Z,51.03
2023-05-20T02:21:16.472Z,50.87
2023-05-20T02:22:16.435Z,48.31
2023-05-20T02:23:16.464Z,49.24
2023-05-20T02:24:16.434Z,50.41
2023-05-20T02:25:16.436Z,47.55
2023-05-20T02:26:16.429Z,52.87
2023-05-20T02:27:16.439Z,52.08
2023-05-20T02:28:16.399Z,50.35
2023-05-20T02:29:16.388Z,51.52
2023-05-20T02:30:16.383Z,53.93
2023-05-20T02:31:16.400Z,50.31
2023-05-20T02:32:16.392Z,51.35
2023-05-20T02:33:16.434Z,48.21
2023-05-20T02:34:16.354Z,55.13
2023-05-20T02:35:16.337Z,50.36
2023-05-20T02:36:16.319Z,52.02
2023-05-20T02:37:16.319Z,50.09
2023-05-20T02:38:16.316Z,51.36
2023-05-20T02:39:16.323Z,57.24
2023-05-20T02:40:17.294Z,50.80
2023-05-20T02:41:16.322Z,51.34
2023-05-20T02:42:16.311Z,51.69
2023-05-20T02:43:16.275Z,57.80
2023-05-20T02:44:16.277Z,51.19
2023-05-20T02:45:16.268Z,50.64
2023-05-20T02:46:16.330Z,56.63
2023-05-20T02:47:16.305Z,53.96
2023-05-20T02:48:17.096Z,49.43
2023-05-20T02:49:16.255Z,54.44
2023-05-20T02:50:16.248Z,50.73
2023-05-20T02:51:16.272Z,48.94
2023-05-20T02:52:16.232Z,48.86
2023-05-20T02:53:16.214Z,59.81
2023-05-20T02:54:16.199Z,50.90
2023-05-20T02:55:16.191Z,52.99
2023-05-20T02:56:16.177Z,51.85
2023-05-20T02:57:16.169Z,48.64
2023-05-20T02:58:16.171Z,54.53
2023-05-20T02:59:16.160Z,51.48
2023-05-20T03:00:16.192Z,54.15
2023-05-20T03:01:16.175Z,53.96
2023-05-20T03:02:16.144Z,54.39
2023-05-20T03:03:16.120Z,57.02
2023-05-20T03:04:16.145Z,55.06
2023-05-20T03:05:16.109Z,50.42
2023-05-20T03:06:16.114Z,50.74
2023-05-20T03:07:16.071Z,59.10
2023-05-20T03:08:16.063Z,56.78
2023-05-20T03:09:16.061Z,60.30
2023-05-20T03:10:16.058Z,47.82
2023-05-20T03:11:16.106Z,51.82
2023-05-20T03:12:16.042Z,54.41
2023-05-20T03:13:16.052Z,56.76
2023-05-20T03:14:16.043Z,60.48
2023-05-20T03:15:16.031Z,51.02
2023-05-20T03:16:16.070Z,59.92
2023-05-20T03:17:16.018Z,56.39
2023-05-20T03:18:17.013Z,53.93
2023-05-20T03:19:16.022Z,50.36
2023-05-20T03:20:15.997Z,49.51
2023-05-20T03:21:15.982Z,48.91
2023-05-20T03:22:15.964Z,46.57
2023-05-20T03:23:16.750Z,57.34
2023-05-20T03:24:15.952Z,50.40
2023-05-20T03:25:15.954Z,47.22
2023-05-20T03:26:15.920Z,50.10
2023-05-20T03:27:16.722Z,56.64
2023-05-20T03:28:15.942Z,53.70
2023-05-20T03:29:16.912Z,53.29
2023-05-20T03:30:15.920Z,51.08
2023-05-20T03:31:15.945Z,55.80
2023-05-20T03:32:15.953Z,55.16
2023-05-20T03:33:15.879Z,48.28
2023-05-20T03:34:15.867Z,49.71
2023-05-20T03:35:15.877Z,58.58
2023-05-20T03:36:16.879Z,59.14
2023-05-20T03:37:15.879Z,58.53
2023-05-20T03:38:15.863Z,60.99
2023-05-20T03:39:15.827Z,53.83
2023-05-20T03:40:15.814Z,62.67
2023-05-20T03:41:15.810Z,56.44
2023-05-20T03:42:15.833Z,59.73
2023-05-20T03:43:15.815Z,59.22
2023-05-20T03:44:15.792Z,52.67
2023-05-20T03:45:15.785Z,52.11
2023-05-20T03:46:15.812Z,53.90
2023-05-20T03:47:15.789Z,54.01
2023-05-20T04:04:00.179Z,51.09
2023-05-20T04:05:00.096Z,58.88
2023-05-20T04:06:00.119Z,55.16
2023-05-20T04:07:00.049Z,56.58
2023-05-20T04:08:00.060Z,50.11
2023-05-20T04:09:00.047Z,54.54
2023-05-20T04:10:00.046Z,51.55
2023-05-20T04:11:00.057Z,59.96
2023-05-20T04:12:00.030Z,54.50
2023-05-20T04:13:00.005Z,53.48
2023-05-20T04:14:01.159Z,56.83
2023-05-20T04:15:01.164Z,56.94
2023-05-20T04:16:01.125Z,52.19
2023-05-20T04:17:01.234Z,51.84
2023-05-20T04:18:01.167Z,48.62
2023-05-20T04:19:01.160Z,51.48
2023-05-20T04:20:01.096Z,53.86
2023-05-20T04:21:01.099Z,49.13
2023-05-20T04:22:01.077Z,49.22
2023-05-20T04:23:01.076Z,59.93
2023-05-20T04:24:01.068Z,52.34
2023-05-20T04:25:01.060Z,57.48
2023-05-20T04:26:01.054Z,50.75
2023-05-20T04:27:01.024Z,48.10
2023-05-20T04:28:01.035Z,55.16
2023-05-20T04:29:01.017Z,54.20
2023-05-20T04:30:01.010Z,52.24
2023-05-20T04:31:02.718Z,55.73
2023-05-20T04:32:01.008Z,50.56
2023-05-20T04:33:01.023Z,59.71
2023-05-20T04:34:01.053Z,54.37
2023-05-20T04:35:00.998Z,56.41
2023-05-20T04:36:00.988Z,53.98
2023-05-20T04:37:00.996Z,53.19
2023-05-20T04:38:00.968Z,55.74
2023-05-20T04:39:00.972Z,54.43
2023-05-20T04:40:00.938Z,56.55
2023-05-20T04:41:00.914Z,55.49
2023-05-20T04:42:00.915Z,48.04
2023-05-20T04:43:01.858Z,58.92
2023-05-20T04:44:00.920Z,51.09
2023-05-20T04:45:00.895Z,53.64
2023-05-20T04:46:00.955Z,58.83
2023-05-20T04:47:00.884Z,59.18
2023-05-20T04:48:00.876Z,57.18
2023-05-20T04:49:00.922Z,65.19
2023-05-20T04:50:00.868Z,55.03
2023-05-20T04:51:00.866Z,55.86
2023-05-20T04:52:00.834Z,56.81
2023-05-20T04:53:00.847Z,52.30
2023-05-20T04:54:00.845Z,57.24
2023-05-20T04:55:00.835Z,61.27
2023-05-20T04:56:00.813Z,56.28
2023-05-20T04:57:00.807Z,54.88
2023-05-20T04:58:00.821Z,59.52
2023-05-20T04:59:00.788Z,56.70
2023-05-20T05:00:00.814Z,54.41
2023-05-20T05:01:00.758Z,57.34
2023-05-20T05:02:00.865Z,60.49
2023-05-20T05:03:00.766Z,60.50
2023-05-20T05:04:00.755Z,55.76
2023-05-20T05:05:00.838Z,51.63
2023-05-20T05:06:00.750Z,61.39
2023-05-20T05:07:01.745Z,58.22
2023-05-20T05:08:00.720Z,62.13
2023-05-20T05:09:00.717Z,56.80
2023-05-20T05:10:00.705Z,58.11
2023-05-20T05:11:00.764Z,55.76
2023-05-20T05:12:00.696Z,60.08
2023-05-20T05:13:00.696Z,60.10
2023-05-20T05:14:00.682Z,60.36
2023-05-20T05:15:00.723Z,58.20
2023-05-20T05:16:00.768Z,52.13
2023-05-20T05:17:00.707Z,57.92
2023-05-20T05:18:00.694Z,60.56
2023-05-20T05:19:00.676Z,59.81
2023-05-20T05:20:00.623Z,54.90
2023-05-20T05:21:00.636Z,57.33
2023-05-20T05:22:00.647Z,56.35
2023-05-20T05:23:00.622Z,51.30
2023-05-20T05:24:00.638Z,59.15
2023-05-20T05:25:00.603Z,59.06
2023-05-20T05:26:00.612Z,54.81
2023-05-20T05:27:00.584Z,64.87
2023-05-20T05:28:00.612Z,58.53
2023-05-20T05:29:00.595Z,62.86
2023-05-20T05:30:00.584Z,59.52
2023-05-20T05:31:00.547Z,57.13
2023-05-20T05:32:00.636Z,65.70
2023-05-20T05:33:00.679Z,64.97
2023-05-20T05:34:00.561Z,57.85
2023-05-20T05:35:00.530Z,57.68
2023-05-20T05:36:00.538Z,60.01
2023-05-20T05:37:00.542Z,56.46
2023-05-20T05:38:00.530Z,55.00
2023-05-20T05:39:00.537Z,56.58
2023-05-20T05:40:00.479Z,64.09
2023-05-20T05:41:00.602Z,53.46
2023-05-20T05:42:01.404Z,63.49
2023-05-20T05:43:01.410Z,62.13
2023-05-20T05:44:00.481Z,60.54
2023-05-20T05:45:00.486Z,55.84
2023-05-20T05:46:00.423Z,52.03
2023-05-20T05:47:00.458Z,57.03
2023-05-20T05:48:00.425Z,61.03
2023-05-20T05:49:00.409Z,60.56
2023-05-20T05:50:00.548Z,59.77
2023-05-20T05:51:00.409Z,59.39
2023-05-20T05:52:00.395Z,55.40
2023-05-20T05:53:00.375Z,59.86
2023-05-20T05:54:00.412Z,65.21
2023-05-20T05:55:00.370Z,60.02
2023-05-20T05:56:00.381Z,55.87
2023-05-20T05:57:02.592Z,61.61
2023-05-20T05:58:03.224Z,50.95
2023-05-20T05:59:04.155Z,57.68
2023-05-20T06:00:01.342Z,60.98
2023-05-20T06:01:00.401Z,60.90
2023-05-20T06:02:00.438Z,64.54
2023-05-20T06:03:00.457Z,63.57
2023-05-20T06:04:02.347Z,55.23
2023-05-20T06:05:00.296Z,59.17
2023-05-20T06:06:04.812Z,59.15
2023-05-20T06:07:02.275Z,56.31
2023-05-20T06:08:00.410Z,57.05
2023-05-20T06:09:00.329Z,58.82
2023-05-20T06:10:01.150Z,56.93
2023-05-20T06:11:00.252Z,60.22
2023-05-20T06:12:00.280Z,64.80
2023-05-20T06:13:00.221Z,55.66
2023-05-20T06:14:00.237Z,65.52
2023-05-20T06:15:00.262Z,63.71
2023-05-20T06:16:00.258Z,66.85
2023-05-20T06:17:01.719Z,61.97
2023-05-20T06:18:00.330Z,62.84
2023-05-20T06:19:08.697Z,55.88
2023-05-20T06:20:02.704Z,60.11
2023-05-20T06:21:00.223Z,57.07
2023-05-20T06:22:00.219Z,61.04
2023-05-20T06:23:00.227Z,65.13
2023-05-20T06:24:00.210Z,63.82
2023-05-20T06:25:00.860Z,63.54
2023-05-20T06:26:00.225Z,58.67
2023-05-20T06:27:00.151Z,56.45
2023-05-20T06:28:00.238Z,56.44
2023-05-20T06:29:00.137Z,56.65
2023-05-20T06:30:00.236Z,61.38
2023-05-20T06:31:00.151Z,56.68
2023-05-20T06:32:00.149Z,61.02
2023-05-20T06:33:00.175Z,60.00
2023-05-20T06:34:00.155Z,61.24
2023-05-20T06:35:00.878Z,59.56
2023-05-20T06:36:00.048Z,63.40
2023-05-20T06:37:00.052Z,61.81
2023-05-20T06:38:00.284Z,61.45
2023-05-20T06:39:00.033Z,63.45
2023-05-20T06:40:00.063Z,58.29
2023-05-20T06:41:02.870Z,58.90
2023-05-20T06:42:00.012Z,60.77
2023-05-20T06:43:00.009Z,64.60
2023-05-20T06:44:00.030Z,56.40
2023-05-20T06:44:59.982Z,65.64
2023-05-20T06:46:00.013Z,67.30
2023-05-20T06:46:59.975Z,65.60
2023-05-20T06:48:00.008Z,60.43
2023-05-20T06:48:59.956Z,64.29
2023-05-20T06:49:59.946Z,64.93
2023-05-20T06:50:59.921Z,60.91
2023-05-20T06:51:59.918Z,65.31
2023-05-20T06:52:59.926Z,63.37
2023-05-20T06:53:59.954Z,66.68
2023-05-20T06:54:59.908Z,69.85
2023-05-20T06:55:59.905Z,64.57
2023-05-20T06:56:59.910Z,62.15
2023-05-20T06:57:59.871Z,59.16
2023-05-20T06:58:59.869Z,64.07
2023-05-20T06:59:59.870Z,61.23
2023-05-20T07:00:59.862Z,63.62
2023-05-20T07:01:59.856Z,64.97
2023-05-20T07:02:59.887Z,65.06
2023-05-20T07:04:00.910Z,55.56
2023-05-20T07:04:59.814Z,63.41
2023-05-20T07:05:59.842Z,66.61
2023-05-20T07:06:59.812Z,60.47
2023-05-20T07:07:59.791Z,64.66
2023-05-20T07:08:59.846Z,56.47
2023-05-20T07:09:59.774Z,65.47
2023-05-20T07:10:59.847Z,63.64
2023-05-20T07:11:59.771Z,60.81
2023-05-20T07:12:59.791Z,64.79
2023-05-20T07:13:59.806Z,67.14
2023-05-20T07:14:59.742Z,65.48
2023-05-20T07:15:59.784Z,65.19
2023-05-20T07:16:59.782Z,67.07
2023-05-20T07:17:59.775Z,61.52
2023-05-20T07:18:59.734Z,63.03
2023-05-20T07:20:00.434Z,62.33
2023-05-20T07:20:59.684Z,63.05
2023-05-20T07:21:59.691Z,62.55
2023-05-20T07:22:59.808Z,65.81
2023-05-20T07:23:59.696Z,68.44
2023-05-20T07:24:59.656Z,65.44
2023-05-20T07:25:59.656Z,64.17
2023-05-20T07:26:59.904Z,65.39
2023-05-20T07:27:59.762Z,67.78
2023-05-20T07:28:59.636Z,64.54
2023-05-20T07:29:59.684Z,66.33
2023-05-20T07:30:59.646Z,61.69
2023-05-20T07:31:59.762Z,65.18
2023-05-20T07:32:59.692Z,63.98
2023-05-20T07:33:59.591Z,65.04
2023-05-20T07:34:59.616Z,65.86
2023-05-20T07:35:59.651Z,66.45
2023-05-20T07:36:59.627Z,59.92
2023-05-20T07:37:59.646Z,66.03
2023-05-20T07:39:03.593Z,69.87
2023-05-20T07:40:01.595Z,62.61
2023-05-20T07:41:00.358Z,63.41
2023-05-20T07:41:59.567Z,68.73
2023-05-20T07:42:59.591Z,65.55
2023-05-20T07:44:00.353Z,65.02
2023-05-20T07:44:59.573Z,66.04
2023-05-20T07:46:01.234Z,62.23
2023-05-20T07:47:00.625Z,67.00
2023-05-20T07:48:00.408Z,63.37
2023-05-20T07:48:59.520Z,64.38
2023-05-20T07:49:59.616Z,61.29
2023-05-20T07:50:59.466Z,64.19
2023-05-20T07:52:00.425Z,65.58
2023-05-20T07:52:59.492Z,64.59
2023-05-20T07:53:59.500Z,66.38
2023-05-20T07:54:59.480Z,65.57
2023-05-20T07:55:59.489Z,67.48
2023-05-20T07:56:59.442Z,63.06
2023-05-20T07:57:59.501Z,67.13
2023-05-20T07:58:59.533Z,63.20
2023-05-20T07:59:59.473Z,66.01
2023-05-20T08:00:59.431Z,68.53
2023-05-20T08:01:59.466Z,65.24
2023-05-20T08:02:59.489Z,61.82
2023-05-20T08:03:59.486Z,65.97
2023-05-20T08:04:59.468Z,66.78
2023-05-20T08:05:59.394Z,64.31
2023-05-20T08:06:59.389Z,66.20
2023-05-20T08:07:59.369Z,64.70
2023-05-20T08:08:59.495Z,60.50
2023-05-20T08:10:00.364Z,64.28
2023-05-20T08:10:59.353Z,62.93
2023-05-20T08:11:59.409Z,67.65
2023-05-20T08:12:59.322Z,62.74
2023-05-20T08:13:59.313Z,66.08
2023-05-20T08:14:59.308Z,66.41
2023-05-20T08:15:59.292Z,61.39
2023-05-20T08:17:00.355Z,64.02
2023-05-20T08:17:59.484Z,65.60
2023-05-20T08:18:59.349Z,69.76
2023-05-20T08:19:59.349Z,67.05
2023-05-20T08:20:59.305Z,67.32
2023-05-20T08:21:59.264Z,66.51
2023-05-20T08:23:02.665Z,67.47
2023-05-20T08:23:59.236Z,65.16
2023-05-20T08:24:59.233Z,64.59
2023-05-20T08:25:59.219Z,68.43
2023-05-20T08:26:59.234Z,67.85
2023-05-20T08:27:59.305Z,66.86
2023-05-20T08:29:05.873Z,65.31
2023-05-20T08:30:00.928Z,67.01
2023-05-20T08:31:00.884Z,66.65
2023-05-20T08:31:59.201Z,56.12
2023-05-20T08:32:59.207Z,67.06
2023-05-20T08:33:59.164Z,67.35
2023-05-20T08:34:59.157Z,62.92
2023-05-20T08:35:59.149Z,69.14
2023-05-20T08:36:59.127Z,64.62
2023-05-20T08:37:59.136Z,65.08
2023-05-20T08:38:59.127Z,69.36
2023-05-20T08:39:59.124Z,61.26
2023-05-20T08:40:59.107Z,67.66
2023-05-20T08:41:59.129Z,67.61
2023-05-20T08:43:00.104Z,68.07
2023-05-20T08:44:00.559Z,66.42
2023-05-20T08:45:05.177Z,69.25
2023-05-20T08:45:59.149Z,64.59
2023-05-20T08:46:59.249Z,67.58
2023-05-20T08:47:59.135Z,69.00
2023-05-20T08:48:59.967Z,67.04
2023-05-20T08:49:59.919Z,70.35
2023-05-20T08:50:59.453Z,62.27
2023-05-20T08:51:59.010Z,66.72
2023-05-20T08:52:59.010Z,69.49
2023-05-20T08:53:59.057Z,69.08
2023-05-20T08:54:59.445Z,66.07
2023-05-20T08:56:01.419Z,60.97
2023-05-20T08:56:59.974Z,64.08
2023-05-20T08:57:58.972Z,60.19
2023-05-20T08:58:58.969Z,66.33
2023-05-20T08:59:58.983Z,66.20
2023-05-20T09:00:59.067Z,64.96
2023-05-20T09:01:58.959Z,67.10
2023-05-20T09:03:01.000Z,64.13
2023-05-20T09:03:59.948Z,69.81
2023-05-20T09:04:58.981Z,66.03
2023-05-20T09:05:58.911Z,65.32
2023-05-20T09:06:58.913Z,61.99
2023-05-20T09:07:58.897Z,66.94
2023-05-20T09:08:58.922Z,69.07
2023-05-20T09:09:59.941Z,65.01
2023-05-20T09:10:58.924Z,69.05
2023-05-20T09:11:58.865Z,64.27
2023-05-20T09:12:58.859Z,60.94
2023-05-20T09:13:59.833Z,70.74
2023-05-20T09:14:58.842Z,68.63
2023-05-20T09:15:58.894Z,65.54
2023-05-20T09:16:58.881Z,64.67
2023-05-20T09:17:58.864Z,63.89
2023-05-20T09:18:58.802Z,67.82
2023-05-20T09:19:58.805Z,63.78
2023-05-20T09:20:58.789Z,68.89
2023-05-20T09:21:58.799Z,62.05
2023-05-20T09:22:58.740Z,64.75
2023-05-20T09:23:58.798Z,62.75
2023-05-20T09:24:58.779Z,66.59
2023-05-20T09:25:58.779Z,63.78
2023-05-20T09:26:58.791Z,69.25
2023-05-20T09:27:59.424Z,65.99
2023-05-20T09:28:58.761Z,59.85
2023-05-20T09:29:58.729Z,66.57
2023-05-20T09:30:58.698Z,65.88
2023-05-20T09:31:58.800Z,67.13
2023-05-20T09:32:58.785Z,65.54
2023-05-20T09:33:58.699Z,64.52
2023-05-20T09:34:58.706Z,65.18
2023-05-20T09:35:58.682Z,66.09
2023-05-20T09:36:58.765Z,66.61
2023-05-20T09:37:59.438Z,69.10
2023-05-20T09:38:58.674Z,64.74
2023-05-20T09:39:58.669Z,67.55
2023-05-20T09:40:58.619Z,67.75
2023-05-20T09:41:58.706Z,65.76
2023-05-20T09:42:58.732Z,62.20
2023-05-20T09:43:58.648Z,67.44
2023-05-20T09:44:58.629Z,66.26
2023-05-20T09:45:58.647Z,68.09
2023-05-20T09:46:58.615Z,61.96
2023-05-20T09:47:58.703Z,64.78
2023-05-20T09:48:59.389Z,67.93
2023-05-20T09:49:58.641Z,67.85
2023-05-20T09:50:58.570Z,69.28
2023-05-20T09:51:58.584Z,59.99
2023-05-20T09:52:58.529Z,73.11
2023-05-20T09:53:58.601Z,66.49
2023-05-20T09:55:00.258Z,63.41
2023-05-20T09:55:58.525Z,61.21
2023-05-20T09:56:58.514Z,66.56
2023-05-20T09:57:58.515Z,67.46
2023-05-20T09:58:58.455Z,67.31
2023-05-20T09:59:59.340Z,64.98
2023-05-20T10:00:58.512Z,60.56
2023-05-20T10:01:58.517Z,66.95
2023-05-20T10:02:58.515Z,67.30
2023-05-20T10:03:58.539Z,66.56
2023-05-20T10:04:58.484Z,65.94
2023-05-20T10:05:58.476Z,64.81
2023-05-20T10:06:58.487Z,66.61
2023-05-20T10:07:58.492Z,64.88
2023-05-20T10:08:59.474Z,65.91
2023-05-20T10:09:58.412Z,67.15
2023-05-20T10:10:58.452Z,62.26
2023-05-20T10:11:58.536Z,66.24
2023-05-20T10:12:58.413Z,68.03
2023-05-20T10:13:58.480Z,67.97
2023-05-20T10:14:58.932Z,64.74
2023-05-20T10:15:58.444Z,68.51
2023-05-20T10:16:58.333Z,66.32
2023-05-20T10:17:58.306Z,64.38
2023-05-20T10:18:58.366Z,68.05
2023-05-20T10:19:58.321Z,58.77
2023-05-20T10:20:58.314Z,65.27
2023-05-20T10:21:58.287Z,63.24
2023-05-20T10:22:58.269Z,64.03
2023-05-20T10:23:58.269Z,63.46
2023-05-20T10:24:58.282Z,64.64
2023-05-20T10:25:58.267Z,62.37
2023-05-20T10:26:58.296Z,66.83
2023-05-20T10:28:30.862Z,65.26
2023-05-20T10:28:58.829Z,61.91
2023-05-20T10:29:58.370Z,64.09
2023-05-20T10:30:58.217Z,66.82
2023-05-20T10:31:58.260Z,63.34
2023-05-20T10:32:58.456Z,62.86
2023-05-20T10:33:58.187Z,65.52
2023-05-20T10:34:58.173Z,66.18
2023-05-20T10:35:58.156Z,66.09
2023-05-20T10:36:58.171Z,65.47
2023-05-20T10:37:58.167Z,68.13
2023-05-20T10:38:58.192Z,65.93
2023-05-20T10:39:58.141Z,69.07
2023-05-20T10:40:58.138Z,64.38
2023-05-20T10:41:58.149Z,66.19
2023-05-20T10:42:58.835Z,62.12
2023-05-20T10:43:58.117Z,64.92
2023-05-20T10:44:58.112Z,66.24
2023-05-20T10:45:58.097Z,66.69
2023-05-20T10:47:20.517Z,67.62
2023-05-20T10:48:00.274Z,66.21
2023-05-20T10:48:58.225Z,68.80
2023-05-20T10:49:58.060Z,61.27
2023-05-20T10:50:58.114Z,68.72
2023-05-20T10:51:58.059Z,67.67
2023-05-20T10:52:58.057Z,68.03
2023-05-20T10:53:58.038Z,65.64
2023-05-20T10:54:58.032Z,63.99
2023-05-20T10:55:58.913Z,63.90
2023-05-20T10:56:58.011Z,62.23
2023-05-20T10:57:58.005Z,66.58
2023-05-20T10:58:58.005Z,65.01
2023-05-20T10:59:57.975Z,65.33
2023-05-20T11:00:58.041Z,64.27
2023-05-20T11:01:57.970Z,66.85
2023-05-20T11:02:58.000Z,65.39
2023-05-20T11:03:58.144Z,61.82
2023-05-20T11:04:57.986Z,67.42
2023-05-20T11:05:57.960Z,64.35
2023-05-20T11:06:58.018Z,62.13
2023-05-20T11:07:58.070Z,64.95
2023-05-20T11:08:57.944Z,64.19
2023-05-20T11:09:58.520Z,64.20
2023-05-20T11:10:58.004Z,64.29
2023-05-20T11:11:57.909Z,66.25
2023-05-20T11:12:57.929Z,61.87
2023-05-20T11:13:57.866Z,66.76
2023-05-20T11:14:58.742Z,68.37
2023-05-20T11:15:57.899Z,64.09
2023-05-20T11:16:57.904Z,63.89
2023-05-20T11:17:57.870Z,63.95
2023-05-20T11:18:57.919Z,69.50
2023-05-20T11:19:57.865Z,66.01
2023-05-20T11:20:57.842Z,60.63
2023-05-20T11:21:57.834Z,66.46
2023-05-20T11:22:57.809Z,64.79
2023-05-20T11:23:57.841Z,66.57
2023-05-20T11:24:57.843Z,63.31
2023-05-20T11:25:57.820Z,66.30
2023-05-20T11:26:57.852Z,67.41
2023-05-20T11:27:57.811Z,64.97
2023-05-20T11:28:59.286Z,62.04
2023-05-20T11:29:58.473Z,65.27
2023-05-20T11:30:57.782Z,64.52
2023-05-20T11:31:57.878Z,64.84
2023-05-20T11:32:57.849Z,65.24
2023-05-20T11:33:57.770Z,62.97
2023-05-20T11:34:58.462Z,66.44
2023-05-20T11:35:57.727Z,66.91
2023-05-20T11:36:57.808Z,66.34
2023-05-20T11:37:57.749Z,61.91
2023-05-20T11:38:57.720Z,61.61
2023-05-20T11:39:57.757Z,64.45
2023-05-20T11:40:58.727Z,67.45
2023-05-20T11:41:57.696Z,70.22
2023-05-20T11:42:57.699Z,66.58
2023-05-20T11:43:57.675Z,67.57
2023-05-20T11:44:58.871Z,66.32
2023-05-20T11:45:57.740Z,67.78
2023-05-20T11:46:57.660Z,65.00
2023-05-20T11:47:57.661Z,67.13
2023-05-20T11:48:57.637Z,68.87
2023-05-20T11:49:57.668Z,64.17
2023-05-20T11:50:58.460Z,67.76
2023-05-20T11:51:57.739Z,65.33
2023-05-20T11:52:57.602Z,60.58
2023-05-20T11:53:57.589Z,66.91
2023-05-20T11:54:57.646Z,67.46
2023-05-20T11:55:57.583Z,67.77
2023-05-20T11:56:57.570Z,62.90
2023-05-20T11:57:57.561Z,66.44
2023-05-20T11:58:57.568Z,66.91
2023-05-20T11:59:57.667Z,62.20
2023-05-20T12:01:09.107Z,66.63
2023-05-20T12:01:59.540Z,65.01
2023-05-20T12:02:57.590Z,66.32
2023-05-20T12:03:57.664Z,56.89
2023-05-20T12:04:57.724Z,62.15
2023-05-20T12:05:57.477Z,66.85
2023-05-20T12:06:57.482Z,65.40
2023-05-20T12:08:04.868Z,68.41
2023-05-20T12:08:57.474Z,66.46
2023-05-20T12:09:57.454Z,59.23
2023-05-20T12:10:58.438Z,66.82
2023-05-20T12:11:58.349Z,65.42
2023-05-20T12:12:57.421Z,69.84
2023-05-20T12:13:57.434Z,59.21
2023-05-20T12:14:57.438Z,65.17
2023-05-20T12:15:57.442Z,68.25
2023-05-20T12:16:57.392Z,66.62
2023-05-20T12:17:57.447Z,62.43
2023-05-20T12:18:57.462Z,64.99
2023-05-20T12:19:57.412Z,63.73
2023-05-20T12:20:57.363Z,69.13
2023-05-20T12:21:57.353Z,64.95
2023-05-20T12:22:57.357Z,64.92
2023-05-20T12:23:57.450Z,65.50
2023-05-20T12:24:58.008Z,61.39
2023-05-20T12:25:57.359Z,66.96
2023-05-20T12:26:57.333Z,65.64
2023-05-20T12:27:57.325Z,65.56
2023-05-20T12:28:57.372Z,68.41
2023-05-20T12:29:57.352Z,65.56
2023-05-20T12:30:57.345Z,62.71
2023-05-20T12:31:57.344Z,66.09
2023-05-20T12:32:57.370Z,62.53
2023-05-20T12:33:57.269Z,63.80
2023-05-20T12:34:57.305Z,62.16
2023-05-20T12:35:57.330Z,62.19
2023-05-20T12:36:57.283Z,68.03
2023-05-20T12:37:57.289Z,64.03
2023-05-20T12:38:57.224Z,66.91
2023-05-20T12:39:57.226Z,63.80
2023-05-20T12:40:57.194Z,66.34
2023-05-20T12:41:57.258Z,64.23
2023-05-20T12:42:57.257Z,63.97
2023-05-20T12:43:57.221Z,64.05
2023-05-20T12:44:57.170Z,63.54
2023-05-20T12:45:57.172Z,64.49
2023-05-20T12:46:57.174Z,68.12
2023-05-20T12:47:57.187Z,64.35
2023-05-20T12:48:57.146Z,63.66
2023-05-20T12:49:57.107Z,65.98
2023-05-20T12:50:57.131Z,67.40
2023-05-20T12:51:57.213Z,62.71
2023-05-20T12:52:57.133Z,61.37
2023-05-20T12:53:57.094Z,66.92
2023-05-20T12:54:57.086Z,63.67
2023-05-20T12:55:57.092Z,58.26
2023-05-20T12:56:57.097Z,64.81
2023-05-20T12:57:57.070Z,66.61
2023-05-20T12:58:57.059Z,68.17
2023-05-20T12:59:57.037Z,61.82
2023-05-20T13:00:57.035Z,66.10
2023-05-20T13:01:57.041Z,64.97
2023-05-20T13:02:57.636Z,62.76
2023-05-20T13:03:57.012Z,66.07
2023-05-20T13:04:57.001Z,65.64
2023-05-20T13:05:56.978Z,61.71
2023-05-20T13:06:57.006Z,63.85
2023-05-20T13:07:56.989Z,65.77